Time;durP1;ratioP1;P1;durP2;ratioP2;P2;SDS_P1;SDS_P2;PMS_P1;PMS_P2;Temp;Humidity;BMP_temperature;BMP_pressure;BME280_temperature;BME280_humidity;BME280_pressure;Samples;Min_cycle;Max_cycle;Signal;HPM_P1;HPM_P2
2023/12/21 00:02:07;;;;;;;1.80;0.70;;;7.10;99.90;;;;;;4934412;29;20291;-59
2023/12/21 00:04:33;;;;;;;2.17;0.67;;;7.10;99.90;;;;;;4933815;29;20207;-60
2023/12/21 00:06:59;;;;;;;2.47;0.80;;;7.10;99.90;;;;;;4934258;29;20183;-60
2023/12/21 00:09:24;;;;;;;1.00;0.60;;;7.10;99.90;;;;;;4933555;29;20190;-60
2023/12/21 00:11:50;;;;;;;1.50;0.40;;;7.10;99.90;;;;;;4934134;29;20278;-60
2023/12/21 00:14:15;;;;;;;4.43;0.40;;;7.10;99.90;;;;;;4934107;29;20250;-60
2023/12/21 00:16:41;;;;;;;1.13;0.30;;;7.10;99.90;;;;;;4934020;29;20397;-60
2023/12/21 00:19:07;;;;;;;3.87;0.47;;;7.10;99.90;;;;;;4933473;29;20261;-59
2023/12/21 00:21:32;;;;;;;3.77;0.50;;;7.20;99.90;;;;;;4933606;29;20217;-60
2023/12/21 00:23:58;;;;;;;1.77;0.50;;;7.30;99.90;;;;;;4933828;29;20629;-60
2023/12/21 00:26:23;;;;;;;0.90;0.30;;;7.20;99.90;;;;;;4933925;29;20609;-60
2023/12/21 00:28:49;;;;;;;3.00;0.50;;;7.20;99.90;;;;;;4933333;29;20271;-60
2023/12/21 00:31:14;;;;;;;1.00;0.40;;;7.30;99.90;;;;;;4933815;29;20289;-60
2023/12/21 00:33:40;;;;;;;0.90;0.30;;;7.20;99.90;;;;;;4933550;29;20211;-60
2023/12/21 00:36:05;;;;;;;0.40;0.20;;;7.20;99.90;;;;;;4933829;28;20199;-59
2023/12/21 00:38:31;;;;;;;1.40;0.30;;;7.30;99.90;;;;;;4933611;29;20187;-60
2023/12/21 00:40:59;;;;;;;0.77;0.40;;;7.40;99.90;;;;;;4933618;29;20241;-60
2023/12/21 00:43:25;;;;;;;1.20;0.63;;;7.30;99.90;;;;;;4933356;29;20718;-59
2023/12/21 00:45:50;;;;;;;0.33;0.30;;;7.30;99.90;;;;;;4933635;29;20195;-59
2023/12/21 00:48:16;;;;;;;0.30;0.30;;;7.30;99.90;;;;;;4933929;29;20207;-57
2023/12/21 00:50:41;;;;;;;0.50;0.30;;;7.30;99.90;;;;;;4932847;29;20286;-58
2023/12/21 00:53:07;;;;;;;2.77;0.30;;;7.30;99.90;;;;;;4932672;29;20561;-59
2023/12/21 00:55:33;;;;;;;0.30;0.20;;;7.30;99.90;;;;;;4933569;29;20183;-59
2023/12/21 00:57:59;;;;;;;0.87;0.37;;;7.30;99.90;;;;;;4933518;29;20191;-57
2023/12/21 01:00:24;;;;;;;2.10;0.30;;;7.30;99.90;;;;;;4932803;29;20686;-58
2023/12/21 01:02:50;;;;;;;1.70;0.10;;;7.30;99.90;;;;;;4933367;29;20724;-58
2023/12/21 01:05:15;;;;;;;0.90;0.33;;;7.30;99.90;;;;;;4933429;29;20191;-57
2023/12/21 01:07:41;;;;;;;1.50;0.20;;;7.30;99.90;;;;;;4933687;29;20188;-59
2023/12/21 01:10:08;;;;;;;6.83;0.40;;;7.30;99.90;;;;;;4932587;29;20207;-59
2023/12/21 01:12:34;;;;;;;1.57;0.30;;;7.30;99.90;;;;;;4933093;29;20195;-59
2023/12/21 01:15:00;;;;;;;0.50;0.30;;;7.30;99.90;;;;;;4933381;29;20532;-59
2023/12/21 01:17:26;;;;;;;1.23;0.30;;;7.30;99.90;;;;;;4932347;29;20175;-58
2023/12/21 01:19:51;;;;;;;0.30;0.20;;;7.40;99.90;;;;;;4932389;29;20565;-59
2023/12/21 01:22:19;;;;;;;3.87;0.40;;;7.40;99.90;;;;;;4933246;29;20740;-59
2023/12/21 01:24:45;;;;;;;1.00;0.40;;;7.40;99.90;;;;;;4925367;29;20590;-59
2023/12/21 01:27:10;;;;;;;5.20;0.40;;;7.40;99.90;;;;;;4933053;29;20187;-58
2023/12/21 01:29:36;;;;;;;0.43;0.40;;;7.30;99.90;;;;;;4932269;29;20214;-58
2023/12/21 01:32:02;;;;;;;4.53;0.40;;;7.40;99.90;;;;;;4932926;29;20180;-59
2023/12/21 01:34:27;;;;;;;0.77;0.40;;;7.40;99.90;;;;;;4932859;29;20270;-58
2023/12/21 01:36:53;;;;;;;1.23;0.50;;;7.40;99.90;;;;;;4932817;29;20214;-59
2023/12/21 01:39:18;;;;;;;0.50;0.30;;;7.40;99.90;;;;;;4932171;29;20183;-57
2023/12/21 01:41:44;;;;;;;1.27;0.30;;;7.40;99.90;;;;;;4932956;29;20242;-58
2023/12/21 01:44:09;;;;;;;1.90;0.20;;;7.40;99.90;;;;;;4933093;29;20214;-58
2023/12/21 01:46:35;;;;;;;0.10;0.10;;;7.50;99.90;;;;;;4932639;29;20716;-59
2023/12/21 01:49:01;;;;;;;1.23;0.20;;;7.50;99.90;;;;;;4932431;29;20215;-58
2023/12/21 01:51:28;;;;;;;0.20;0.20;;;7.50;99.90;;;;;;4932946;29;20203;-59
2023/12/21 01:53:55;;;;;;;0.73;0.20;;;7.50;99.90;;;;;;4933088;29;20191;-58
2023/12/21 01:56:20;;;;;;;0.73;0.20;;;7.50;99.90;;;;;;4932792;29;20274;-59
2023/12/21 01:58:50;;;;;;;1.63;0.27;;;7.50;99.90;;;;;;4932321;29;20275;-59
2023/12/21 02:01:18;;;;;;;0.60;0.20;;;7.60;99.90;;;;;;4932309;29;20222;-58
2023/12/21 02:03:44;;;;;;;0.77;0.20;;;7.50;99.90;;;;;;4932449;29;20221;-59
2023/12/21 02:06:10;;;;;;;0.27;0.20;;;7.50;99.90;;;;;;4932890;29;20188;-60
2023/12/21 02:08:36;;;;;;;1.90;0.20;;;7.60;99.90;;;;;;4932033;29;20604;-58
2023/12/21 02:11:07;;;;;;;1.93;0.30;;;7.60;99.90;;;;;;4932720;29;20214;-59
2023/12/21 02:13:33;;;;;;;1.73;0.30;;;7.60;99.90;;;;;;4932621;29;20202;-59
2023/12/21 02:16:05;;;;;;;3.00;0.50;;;7.60;99.90;;;;;;4931755;29;20568;-59
2023/12/21 02:18:32;;;;;;;1.00;0.50;;;7.60;99.90;;;;;;4932415;29;20183;-57
2023/12/21 02:20:58;;;;;;;2.43;0.20;;;7.60;99.90;;;;;;4932507;29;20691;-59
2023/12/21 02:23:27;;;;;;;1.23;0.20;;;7.60;99.90;;;;;;4932399;29;20210;-59
2023/12/21 02:25:53;;;;;;;0.20;0.20;;;7.60;99.90;;;;;;4932712;29;20184;-59
2023/12/21 02:28:18;;;;;;;4.63;0.50;;;7.50;99.90;;;;;;4934179;29;20207;-58
2023/12/21 02:30:46;;;;;;;0.70;0.30;;;7.50;99.90;;;;;;4927401;29;20254;-57
2023/12/21 02:33:12;;;;;;;1.20;0.30;;;7.60;99.90;;;;;;4936070;29;20254;-59
2023/12/21 02:35:37;;;;;;;3.47;0.30;;;7.50;99.90;;;;;;4935770;29;20661;-59
2023/12/21 02:38:03;;;;;;;1.90;0.30;;;7.50;99.90;;;;;;4935838;29;20218;-58
2023/12/21 02:40:29;;;;;;;0.50;0.30;;;7.40;99.90;;;;;;4934977;29;20236;-58
2023/12/21 02:42:55;;;;;;;0.73;0.40;;;7.40;99.90;;;;;;4935938;29;20219;-59
2023/12/21 02:45:20;;;;;;;1.13;0.50;;;7.40;99.90;;;;;;4935999;29;20197;-59
2023/12/21 02:47:46;;;;;;;0.53;0.30;;;7.50;99.90;;;;;;4935607;29;20200;-57
2023/12/21 02:50:11;;;;;;;0.50;0.30;;;7.40;99.90;;;;;;4935053;29;20210;-62
2023/12/21 02:52:37;;;;;;;0.30;0.30;;;7.40;99.90;;;;;;4935649;29;20724;-59
2023/12/21 02:55:03;;;;;;;3.13;0.40;;;7.50;99.90;;;;;;4935753;29;20187;-59
2023/12/21 02:57:28;;;;;;;0.57;0.40;;;7.50;99.90;;;;;;4935502;29;20187;-59
2023/12/21 02:59:54;;;;;;;1.67;0.20;;;7.50;99.90;;;;;;4934663;29;20306;-60
2023/12/21 03:02:19;;;;;;;0.30;0.20;;;7.50;99.90;;;;;;4935520;29;20214;-58
2023/12/21 03:04:45;;;;;;;4.60;0.30;;;7.50;99.90;;;;;;4935231;29;20211;-57
2023/12/21 03:07:11;;;;;;;0.20;0.20;;;7.60;99.90;;;;;;4935395;29;20187;-58
2023/12/21 03:09:36;;;;;;;0.50;0.20;;;7.60;99.90;;;;;;4934393;29;20223;-58
2023/12/21 03:12:02;;;;;;;0.40;0.20;;;7.60;99.90;;;;;;4935495;29;20184;-57
2023/12/21 03:14:27;;;;;;;0.13;0.10;;;7.70;99.90;;;;;;4935665;29;20193;-59
2023/12/21 03:16:53;;;;;;;0.20;0.20;;;7.60;99.90;;;;;;4935293;29;20195;-58
2023/12/21 03:19:18;;;;;;;0.20;0.20;;;7.70;99.90;;;;;;4934615;29;20654;-57
2023/12/21 03:21:44;;;;;;;1.50;0.20;;;7.60;99.90;;;;;;4935025;29;20727;-57
2023/12/21 03:24:09;;;;;;;2.50;0.30;;;7.60;99.90;;;;;;4935335;29;20214;-55
2023/12/21 03:26:35;;;;;;;2.40;0.10;;;7.60;99.90;;;;;;4935958;29;20194;-57
2023/12/21 03:29:00;;;;;;;0.10;0.10;;;7.60;99.90;;;;;;4934650;29;20191;-52
2023/12/21 03:31:26;;;;;;;0.40;0.20;;;7.60;99.90;;;;;;4935231;29;20199;-53
2023/12/21 03:33:51;;;;;;;0.63;0.20;;;7.50;99.90;;;;;;4935629;29;20552;-53
2023/12/21 03:36:17;;;;;;;0.27;0.20;;;7.60;99.90;;;;;;4935344;29;20273;-52
2023/12/21 03:38:43;;;;;;;0.20;0.20;;;7.70;99.90;;;;;;4933859;29;20195;-54
2023/12/21 03:41:08;;;;;;;0.20;0.20;;;7.70;99.90;;;;;;4934138;29;20211;-56
2023/12/21 03:43:35;;;;;;;2.07;0.20;;;7.70;99.90;;;;;;4934428;29;20692;-55
2023/12/21 03:46:00;;;;;;;0.20;0.20;;;7.70;99.90;;;;;;4934743;29;20193;-53
2023/12/21 03:48:26;;;;;;;0.60;0.30;;;7.70;99.90;;;;;;4934309;29;20564;-55
2023/12/21 03:50:51;;;;;;;2.60;0.30;;;7.70;99.90;;;;;;4933164;29;20211;-56
2023/12/21 03:53:17;;;;;;;0.33;0.20;;;7.60;99.90;;;;;;4934406;29;20199;-53
2023/12/21 03:55:43;;;;;;;1.03;0.30;;;7.60;99.90;;;;;;4934324;29;20274;-59
2023/12/21 03:58:09;;;;;;;0.87;0.30;;;7.60;99.90;;;;;;4934334;29;20274;-59
2023/12/21 04:00:34;;;;;;;0.60;0.20;;;7.70;99.90;;;;;;4933652;29;20318;-59
2023/12/21 04:03:01;;;;;;;0.27;0.20;;;7.70;99.90;;;;;;4934213;29;20217;-58
2023/12/21 04:05:26;;;;;;;0.17;0.17;;;7.70;99.90;;;;;;4934493;29;20183;-60
2023/12/21 04:07:52;;;;;;;0.40;0.20;;;7.80;99.90;;;;;;4934354;29;20258;-59
2023/12/21 04:10:18;;;;;;;0.20;0.20;;;7.80;99.90;;;;;;4933457;29;20203;-60
2023/12/21 04:12:43;;;;;;;0.10;0.10;;;7.80;99.90;;;;;;4933844;29;20187;-59
2023/12/21 04:15:11;;;;;;;2.27;0.10;;;7.80;99.90;;;;;;4934410;29;20234;-60
2023/12/21 04:17:37;;;;;;;0.20;0.20;;;7.80;99.90;;;;;;4934225;29;20206;-59
2023/12/21 04:20:04;;;;;;;0.77;0.20;;;7.80;99.90;;;;;;4933420;29;20210;-59
2023/12/21 04:22:29;;;;;;;0.23;0.20;;;7.80;99.90;;;;;;4933755;29;20720;-59
2023/12/21 04:24:55;;;;;;;0.20;0.20;;;7.80;99.90;;;;;;4933912;29;20269;-59
2023/12/21 04:27:20;;;;;;;2.17;0.20;;;7.80;99.90;;;;;;4933801;29;20222;-59
2023/12/21 04:29:46;;;;;;;0.20;0.20;;;7.80;99.90;;;;;;4933477;29;20677;-57
2023/12/21 04:32:11;;;;;;;0.20;0.20;;;7.80;99.90;;;;;;4933881;29;20649;-59
2023/12/21 04:34:37;;;;;;;0.10;0.10;;;7.70;99.90;;;;;;4933859;29;20665;-57
2023/12/21 04:37:03;;;;;;;0.10;0.10;;;7.80;99.90;;;;;;4934179;29;20273;-58
2023/12/21 04:39:28;;;;;;;0.30;0.20;;;7.80;99.90;;;;;;4932722;29;20187;-59
2023/12/21 04:41:54;;;;;;;0.10;0.10;;;7.80;99.90;;;;;;4933758;29;20198;-59
2023/12/21 04:44:20;;;;;;;1.23;0.63;;;7.80;99.90;;;;;;4933708;29;20277;-59
2023/12/21 04:46:48;;;;;;;0.17;0.17;;;7.80;99.90;;;;;;4933245;29;20560;-59
2023/12/21 04:49:14;;;;;;;0.20;0.17;;;7.80;99.90;;;;;;4932925;29;20195;-58
2023/12/21 04:51:40;;;;;;;0.10;0.10;;;7.80;99.90;;;;;;4933278;29;20207;-58
2023/12/21 04:54:06;;;;;;;0.10;0.10;;;7.80;99.90;;;;;;4933261;29;20195;-57
2023/12/21 04:56:31;;;;;;;0.40;0.17;;;7.80;99.90;;;;;;4933389;29;20195;-59
2023/12/21 04:58:57;;;;;;;0.20;0.20;;;7.80;99.90;;;;;;4932814;29;20187;-59
2023/12/21 05:01:23;;;;;;;1.40;0.33;;;7.70;99.90;;;;;;4933241;29;20309;-60
2023/12/21 05:03:48;;;;;;;0.10;0.10;;;7.80;99.90;;;;;;4933296;29;20331;-59
2023/12/21 05:06:14;;;;;;;0.53;0.30;;;7.80;99.90;;;;;;4933306;29;20274;-59
2023/12/21 05:08:40;;;;;;;0.43;0.13;;;7.80;99.90;;;;;;4932943;29;20234;-57
2023/12/21 05:11:05;;;;;;;0.53;0.30;;;7.80;99.90;;;;;;4933097;29;20340;-59
2023/12/21 05:13:31;;;;;;;0.20;0.20;;;7.80;99.90;;;;;;4931788;29;20201;-60
2023/12/21 05:15:56;;;;;;;1.00;0.20;;;7.90;99.90;;;;;;4933339;29;20541;-59
2023/12/21 05:18:23;;;;;;;0.60;0.40;;;7.90;99.90;;;;;;4932945;29;20214;-59
2023/12/21 05:20:49;;;;;;;0.80;0.30;;;7.80;99.90;;;;;;4932566;29;20294;-60
2023/12/21 05:23:14;;;;;;;0.23;0.20;;;7.80;99.90;;;;;;4933147;29;20795;-59
2023/12/21 05:25:40;;;;;;;0.70;0.20;;;7.90;99.90;;;;;;4932856;29;20223;-60
2023/12/21 05:28:06;;;;;;;0.47;0.20;;;7.90;99.90;;;;;;4933003;29;20214;-59
2023/12/21 05:30:32;;;;;;;0.40;0.20;;;7.80;99.90;;;;;;4932693;29;20234;-60
2023/12/21 05:32:58;;;;;;;0.17;0.17;;;7.80;99.90;;;;;;4933107;29;20191;-60
2023/12/21 05:35:25;;;;;;;0.20;0.20;;;7.80;99.90;;;;;;4932973;29;20239;-60
2023/12/21 05:37:50;;;;;;;1.03;0.20;;;7.90;99.90;;;;;;4933091;29;20179;-58
2023/12/21 05:40:16;;;;;;;0.60;0.20;;;7.80;99.90;;;;;;4932250;29;20206;-58
2023/12/21 05:42:42;;;;;;;0.10;0.10;;;7.80;99.90;;;;;;4932868;29;20777;-59
2023/12/21 05:45:07;;;;;;;0.93;0.20;;;7.90;99.90;;;;;;4932914;29;20182;-55
2023/12/21 05:47:33;;;;;;;0.20;0.20;;;7.90;99.90;;;;;;4932901;29;20675;-54
2023/12/21 05:49:59;;;;;;;0.10;0.10;;;7.90;99.90;;;;;;4932353;29;20199;-53
2023/12/21 05:52:25;;;;;;;0.10;0.10;;;7.90;99.90;;;;;;4932605;29;20183;-56
2023/12/21 05:54:50;;;;;;;0.20;0.10;;;7.90;99.90;;;;;;4932735;29;20188;-52
2023/12/21 05:57:16;;;;;;;3.03;1.17;;;7.90;99.90;;;;;;4931619;29;20191;-55
2023/12/21 05:59:42;;;;;;;0.20;0.20;;;7.90;99.90;;;;;;4931874;29;20696;-54
2023/12/21 06:02:08;;;;;;;0.13;0.13;;;7.90;99.90;;;;;;4932797;29;20254;-54
2023/12/21 06:04:33;;;;;;;0.17;0.17;;;7.90;99.90;;;;;;4936297;29;20347;-57
2023/12/21 06:06:59;;;;;;;1.20;0.30;;;7.90;99.90;;;;;;4936446;29;20692;-53
2023/12/21 06:09:25;;;;;;;0.57;0.20;;;7.90;99.90;;;;;;4935370;29;20653;-52
2023/12/21 06:11:51;;;;;;;0.20;0.20;;;7.90;99.90;;;;;;4936387;29;20238;-58
2023/12/21 06:14:16;;;;;;;2.73;0.53;;;7.90;99.90;;;;;;4936239;29;20246;-53
2023/12/21 06:16:42;;;;;;;0.70;0.50;;;7.80;99.90;;;;;;4936036;28;20187;-52
2023/12/21 06:19:10;;;;;;;1.23;0.70;;;7.90;99.90;;;;;;4935526;29;20266;-56
2023/12/21 06:21:39;;;;;;;0.70;0.50;;;7.90;99.90;;;;;;4935947;29;20197;-54
2023/12/21 06:24:06;;;;;;;0.40;0.30;;;7.90;99.90;;;;;;4936010;29;20354;-54
2023/12/21 06:26:32;;;;;;;0.30;0.30;;;7.90;99.90;;;;;;4935953;29;20183;-56
2023/12/21 06:28:57;;;;;;;0.30;0.30;;;7.80;99.90;;;;;;4935544;29;20266;-54
2023/12/21 06:31:23;;;;;;;1.07;0.60;;;7.90;99.90;;;;;;4935729;29;20283;-57
2023/12/21 06:33:49;;;;;;;0.87;0.57;;;7.90;99.90;;;;;;4936159;29;20187;-56
2023/12/21 06:36:15;;;;;;;0.77;0.50;;;8.00;99.90;;;;;;4936016;29;20195;-54
2023/12/21 06:38:41;;;;;;;0.63;0.50;;;8.00;99.90;;;;;;4935056;29;20608;-55
2023/12/21 06:41:07;;;;;;;1.13;0.40;;;8.00;99.90;;;;;;4935817;29;20205;-57
2023/12/21 06:43:32;;;;;;;0.77;0.30;;;7.90;99.90;;;;;;4935491;29;20266;-53
2023/12/21 06:45:58;;;;;;;0.33;0.30;;;8.00;99.90;;;;;;4935963;29;20199;-52
2023/12/21 06:48:23;;;;;;;0.67;0.50;;;8.00;99.90;;;;;;4935556;29;20206;-56
2023/12/21 06:50:49;;;;;;;4.00;0.50;;;8.00;99.90;;;;;;4935205;29;20234;-52
2023/12/21 06:53:18;;;;;;;1.20;1.00;;;7.90;99.90;;;;;;4935581;29;20187;-56
2023/12/21 06:55:43;;;;;;;0.43;0.40;;;8.00;99.90;;;;;;4935968;29;20194;-55
2023/12/21 06:58:09;;;;;;;1.40;0.30;;;8.00;99.90;;;;;;4934207;29;20270;-56
2023/12/21 07:00:35;;;;;;;0.40;0.30;;;8.00;99.90;;;;;;4934514;29;20871;-52
2023/12/21 07:03:00;;;;;;;0.83;0.40;;;8.00;99.90;;;;;;4935415;29;20234;-55
2023/12/21 07:05:26;;;;;;;0.60;0.20;;;8.00;99.90;;;;;;4935316;29;20640;-56
2023/12/21 07:07:54;;;;;;;1.10;0.27;;;8.00;99.90;;;;;;4935207;29;20183;-56
2023/12/21 07:10:20;;;;;;;1.40;0.37;;;8.00;99.90;;;;;;4934733;29;20743;-55
2023/12/21 07:12:46;;;;;;;0.50;0.40;;;8.10;99.90;;;;;;4934432;29;20543;-57
2023/12/21 07:15:12;;;;;;;3.53;0.40;;;8.10;99.90;;;;;;4933767;29;20202;-55
2023/12/21 07:17:38;;;;;;;0.73;0.67;;;8.10;99.90;;;;;;4934703;29;20653;-55
2023/12/21 07:20:04;;;;;;;1.30;0.90;;;8.10;99.90;;;;;;4933583;29;20287;-52
2023/12/21 07:22:30;;;;;;;0.63;0.50;;;8.10;99.90;;;;;;4935111;29;20694;-53
2023/12/21 07:24:56;;;;;;;2.70;0.60;;;8.10;99.90;;;;;;4934932;29;20302;-57
2023/12/21 07:27:21;;;;;;;0.60;0.50;;;8.10;99.90;;;;;;4935075;29;20234;-57
2023/12/21 07:29:49;;;;;;;0.57;0.40;;;8.10;99.90;;;;;;4934116;29;20203;-54
2023/12/21 07:32:15;;;;;;;1.37;0.40;;;8.20;99.90;;;;;;4934937;29;20203;-55
2023/12/21 07:34:41;;;;;;;0.90;0.30;;;8.20;99.90;;;;;;4934747;29;20199;-58
2023/12/21 07:37:08;;;;;;;0.40;0.27;;;8.20;99.90;;;;;;4934764;29;20194;-56
2023/12/21 07:39:34;;;;;;;0.73;0.53;;;8.30;99.90;;;;;;4933961;29;20207;-56
2023/12/21 07:42:00;;;;;;;0.27;0.20;;;8.30;99.90;;;;;;4933273;29;20727;-52
2023/12/21 07:44:26;;;;;;;0.43;0.40;;;8.30;99.90;;;;;;4933694;29;20211;-55
2023/12/21 07:46:51;;;;;;;0.50;0.30;;;8.30;99.90;;;;;;4933911;29;20202;-52
2023/12/21 07:49:17;;;;;;;2.83;0.63;;;8.30;99.90;;;;;;4933452;29;20179;-53
2023/12/21 07:51:42;;;;;;;1.53;0.60;;;8.30;99.90;;;;;;4933683;29;20206;-55
2023/12/21 07:54:08;;;;;;;2.50;1.10;;;8.30;99.90;;;;;;4934071;29;20262;-57
2023/12/21 07:56:33;;;;;;;0.80;0.60;;;8.30;99.90;;;;;;4933737;29;20191;-54
2023/12/21 07:59:04;;;;;;;0.60;0.50;;;8.30;99.90;;;;;;4933067;29;20282;-55
2023/12/21 08:01:30;;;;;;;1.43;0.40;;;8.40;99.90;;;;;;4933527;29;20700;-52
2023/12/21 08:03:56;;;;;;;0.93;0.83;;;8.40;99.90;;;;;;4933343;29;20254;-53
2023/12/21 08:06:22;;;;;;;1.20;0.67;;;8.30;99.90;;;;;;4939370;29;20179;-54
2023/12/21 08:08:48;;;;;;;1.43;0.70;;;8.40;99.90;;;;;;4933235;29;20180;-52
2023/12/21 08:11:15;;;;;;;1.60;0.70;;;8.40;99.90;;;;;;4933509;29;20203;-55
2023/12/21 08:13:40;;;;;;;1.30;1.00;;;8.40;99.90;;;;;;4933426;29;20246;-58
2023/12/21 08:16:07;;;;;;;4.93;1.07;;;8.50;99.90;;;;;;4933696;29;20191;-57
2023/12/21 08:18:32;;;;;;;2.10;1.00;;;8.50;99.90;;;;;;4932639;29;20186;-57
2023/12/21 08:20:58;;;;;;;1.43;0.97;;;8.60;99.90;;;;;;4933519;29;20199;-55
2023/12/21 08:23:24;;;;;;;2.57;1.00;;;8.60;99.90;;;;;;4933233;29;20267;-56
2023/12/21 08:25:49;;;;;;;1.27;0.90;;;8.60;99.90;;;;;;4933181;29;20189;-59
2023/12/21 08:28:15;;;;;;;1.23;0.70;;;8.60;99.90;;;;;;4933181;29;20198;-59
2023/12/21 08:30:41;;;;;;;1.67;1.00;;;8.60;99.90;;;;;;4932435;29;20207;-57
2023/12/21 08:33:07;;;;;;;0.97;0.80;;;8.60;99.90;;;;;;4933100;29;20183;-60
2023/12/21 08:35:33;;;;;;;1.70;1.20;;;8.60;99.90;;;;;;4933118;29;20250;-59
2023/12/21 08:38:00;;;;;;;1.43;0.80;;;8.60;99.90;;;;;;4933346;29;20199;-60
2023/12/21 08:40:26;;;;;;;1.33;0.80;;;8.70;99.90;;;;;;4932432;29;20219;-60
2023/12/21 08:42:51;;;;;;;1.00;0.70;;;8.60;99.90;;;;;;4932990;29;20183;-58
2023/12/21 08:45:17;;;;;;;1.50;1.00;;;8.70;99.90;;;;;;4932974;29;20645;-58
2023/12/21 08:47:43;;;;;;;0.67;0.50;;;8.70;99.90;;;;;;4932819;29;20195;-58
2023/12/21 08:50:10;;;;;;;1.00;0.73;;;8.70;99.90;;;;;;4932397;29;20278;-58
2023/12/21 08:52:36;;;;;;;1.17;0.60;;;8.70;99.90;;;;;;4932923;29;20622;-58
2023/12/21 08:55:03;;;;;;;1.23;0.70;;;8.80;99.90;;;;;;4932848;29;20201;-57
2023/12/21 08:57:29;;;;;;;1.00;0.57;;;8.80;99.90;;;;;;4932844;29;20187;-57
2023/12/21 08:59:55;;;;;;;0.83;0.50;;;8.80;99.90;;;;;;4931978;29;20251;-57
2023/12/21 09:02:22;;;;;;;0.60;0.30;;;8.80;99.90;;;;;;4932557;29;20637;-57
2023/12/21 09:04:48;;;;;;;0.67;0.60;;;8.90;99.90;;;;;;4932763;29;20214;-58
2023/12/21 09:07:13;;;;;;;0.50;0.30;;;9.00;99.90;;;;;;4932926;29;20230;-57
2023/12/21 09:09:39;;;;;;;0.27;0.20;;;9.00;99.90;;;;;;4932129;29;20203;-58
2023/12/21 09:12:05;;;;;;;1.80;0.40;;;9.10;99.90;;;;;;4932665;29;20194;-62
2023/12/21 09:14:30;;;;;;;0.80;0.40;;;9.10;99.90;;;;;;4932679;29;20568;-55
2023/12/21 09:16:56;;;;;;;1.33;0.40;;;9.10;99.90;;;;;;4932475;29;20187;-57
2023/12/21 09:19:21;;;;;;;1.63;0.50;;;9.20;99.90;;;;;;4930556;29;20191;-57
2023/12/21 09:21:47;;;;;;;0.67;0.50;;;9.20;99.90;;;;;;4931795;29;20187;-57
2023/12/21 09:24:13;;;;;;;0.77;0.50;;;9.30;99.90;;;;;;4931894;29;20211;-60
2023/12/21 09:26:39;;;;;;;3.83;1.60;;;9.30;99.90;;;;;;4931970;29;20190;-58
2023/12/21 09:29:05;;;;;;;1.53;1.10;;;9.40;99.90;;;;;;4931408;29;20197;-57
2023/12/21 09:31:31;;;;;;;1.53;1.13;;;9.40;99.90;;;;;;4931364;29;20206;-58
2023/12/21 09:33:57;;;;;;;1.00;0.60;;;9.40;99.90;;;;;;4932339;29;20524;-66
2023/12/21 09:36:23;;;;;;;2.27;1.20;;;9.40;99.90;;;;;;4932404;29;20190;-58
2023/12/21 09:38:49;;;;;;;0.53;0.40;;;9.30;99.90;;;;;;4934319;29;20258;-57
2023/12/21 09:41:15;;;;;;;0.43;0.30;;;9.20;99.90;;;;;;4936201;29;20206;-57
2023/12/21 09:43:41;;;;;;;0.97;0.80;;;9.20;99.90;;;;;;4936714;29;20254;-55
2023/12/21 09:46:08;;;;;;;3.07;0.70;;;9.20;99.90;;;;;;4936489;29;20175;-56
2023/12/21 09:48:37;;;;;;;3.00;0.90;;;9.20;99.90;;;;;;4935329;29;20199;-56
2023/12/21 09:51:05;;;;;;;0.70;0.40;;;9.30;99.90;;;;;;4936576;29;20763;-53
2023/12/21 09:53:33;;;;;;;1.87;0.50;;;9.20;99.90;;;;;;4935852;29;20187;-57
2023/12/21 09:56:00;;;;;;;0.50;0.30;;;9.30;99.90;;;;;;4936234;29;20179;-58
2023/12/21 09:58:25;;;;;;;1.20;0.50;;;9.30;99.90;;;;;;4935760;29;20198;-55
2023/12/21 10:00:51;;;;;;;0.67;0.30;;;9.30;99.90;;;;;;4935704;29;20234;-57
2023/12/21 10:03:17;;;;;;;2.90;0.50;;;9.30;99.90;;;;;;4935826;29;20207;-57
2023/12/21 10:05:43;;;;;;;1.20;0.87;;;9.30;99.90;;;;;;4936020;29;20175;-59
2023/12/21 10:08:09;;;;;;;2.60;0.87;;;9.30;99.90;;;;;;4935928;29;20270;-58
2023/12/21 10:10:37;;;;;;;1.07;0.73;;;9.30;99.90;;;;;;4934954;29;20222;-60
2023/12/21 10:13:03;;;;;;;0.77;0.50;;;9.30;99.90;;;;;;4935831;29;20187;-59
2023/12/21 10:15:35;;;;;;;1.20;0.70;;;9.30;99.90;;;;;;4935663;29;20189;-54
2023/12/21 10:18:00;;;;;;;1.77;0.80;;;9.30;99.90;;;;;;4935576;29;20564;-56
2023/12/21 10:20:26;;;;;;;2.77;0.50;;;9.30;99.90;;;;;;4934870;29;20203;-55
2023/12/21 10:22:52;;;;;;;0.87;0.50;;;9.30;99.90;;;;;;4935677;29;20443;-55
2023/12/21 10:25:21;;;;;;;2.13;1.10;;;9.20;99.90;;;;;;4935745;29;20226;-53
2023/12/21 10:27:54;;;;;;;2.07;1.03;;;9.30;99.90;;;;;;4935189;29;20549;-57
2023/12/21 10:30:22;;;;;;;4.30;1.47;;;9.30;99.90;;;;;;4934684;29;20195;-60
2023/12/21 10:32:51;;;;;;;2.43;0.63;;;9.30;99.90;;;;;;4935290;29;20171;-59
2023/12/21 10:35:17;;;;;;;0.60;0.40;;;9.30;99.90;;;;;;4935505;29;20186;-59
2023/12/21 10:37:43;;;;;;;1.03;0.30;;;9.30;99.90;;;;;;4935229;29;20587;-56
2023/12/21 10:40:13;;;;;;;1.83;0.90;;;9.30;99.90;;;;;;4934618;29;20203;-57
2023/12/21 10:42:43;;;;;;;0.97;0.50;;;9.20;99.90;;;;;;4935308;29;20250;-57
2023/12/21 10:45:09;;;;;;;5.83;0.67;;;9.30;99.90;;;;;;4935229;29;20211;-56
2023/12/21 10:47:36;;;;;;;2.67;0.50;;;9.30;99.90;;;;;;4934806;29;20194;-55
2023/12/21 10:50:03;;;;;;;0.90;0.50;;;9.20;99.90;;;;;;4934529;29;20210;-55
2023/12/21 10:52:29;;;;;;;0.77;0.53;;;9.20;99.90;;;;;;4934751;29;20361;-57
2023/12/21 10:54:57;;;;;;;0.73;0.60;;;9.20;99.90;;;;;;4935061;29;20658;-57
2023/12/21 10:57:23;;;;;;;0.97;0.40;;;9.20;99.90;;;;;;4935104;29;20284;-58
2023/12/21 10:59:50;;;;;;;0.63;0.53;;;9.20;99.90;;;;;;4941998;29;20214;-55
2023/12/21 11:02:18;;;;;;;3.33;0.70;;;9.20;99.90;;;;;;4934929;29;20278;-55
2023/12/21 11:04:45;;;;;;;0.37;0.33;;;9.30;99.90;;;;;;4934876;29;20215;-54
2023/12/21 11:07:12;;;;;;;2.00;0.80;;;9.30;99.90;;;;;;4934932;29;20191;-53
2023/12/21 11:09:40;;;;;;;0.93;0.70;;;9.30;99.90;;;;;;4933939;29;20218;-55
2023/12/21 11:12:08;;;;;;;5.87;0.73;;;9.30;99.90;;;;;;4934873;29;20175;-58
2023/12/21 11:14:34;;;;;;;0.10;0.10;;;9.30;99.90;;;;;;4934572;29;20194;-56
2023/12/21 11:17:02;;;;;;;1.53;0.37;;;9.30;99.90;;;;;;4934665;29;20188;-57
2023/12/21 11:19:34;;;;;;;0.40;0.40;;;9.30;99.90;;;;;;4933471;29;20187;-56
2023/12/21 11:22:01;;;;;;;0.43;0.30;;;9.30;99.90;;;;;;4934585;29;20187;-57
2023/12/21 11:24:26;;;;;;;0.60;0.30;;;9.30;99.90;;;;;;4933490;29;20209;-58
2023/12/21 11:26:52;;;;;;;1.40;1.00;;;9.40;99.90;;;;;;4926932;29;20616;-58
2023/12/21 11:29:27;;;;;;;0.73;0.20;;;9.30;99.90;;;;;;4933589;29;20175;-56
2023/12/21 11:31:54;;;;;;;0.47;0.40;;;9.30;99.90;;;;;;4926958;29;20183;-56
2023/12/21 11:34:24;;;;;;;1.33;0.70;;;9.40;99.90;;;;;;4932685;29;20187;-57
2023/12/21 11:36:52;;;;;;;1.43;0.60;;;9.40;99.90;;;;;;4932900;29;20203;-57
2023/12/21 11:39:22;;;;;;;2.67;0.40;;;9.40;99.90;;;;;;4933426;29;20313;-57
2023/12/21 11:41:56;;;;;;;1.10;0.40;;;9.40;99.90;;;;;;4933557;29;20185;-57
2023/12/21 11:44:22;;;;;;;0.53;0.30;;;9.40;99.90;;;;;;4934250;29;20206;-58
2023/12/21 11:46:48;;;;;;;1.27;0.50;;;9.40;99.90;;;;;;4932611;29;20179;-58
2023/12/21 11:49:23;;;;;;;0.70;0.30;;;9.50;99.90;;;;;;4933308;29;20728;-57
2023/12/21 11:51:50;;;;;;;0.70;0.40;;;9.50;99.90;;;;;;4933974;29;20661;-56
2023/12/21 11:54:23;;;;;;;0.30;0.30;;;9.50;99.90;;;;;;4934302;29;20266;-57
2023/12/21 11:56:54;;;;;;;0.57;0.30;;;9.50;99.90;;;;;;4933844;29;20175;-58
2023/12/21 11:59:23;;;;;;;0.70;0.50;;;9.50;99.90;;;;;;4933173;29;20644;-57
2023/12/21 12:01:49;;;;;;;2.77;0.30;;;9.50;99.90;;;;;;4932999;29;20197;-58
2023/12/21 12:04:15;;;;;;;0.70;0.30;;;9.60;99.90;;;;;;4933905;29;20219;-59
2023/12/21 12:06:43;;;;;;;0.67;0.40;;;9.60;99.90;;;;;;4933689;29;20202;-57
2023/12/21 12:09:09;;;;;;;0.90;0.33;;;9.60;99.90;;;;;;4933360;29;20184;-56
2023/12/21 12:11:35;;;;;;;0.70;0.30;;;9.60;99.90;;;;;;4933405;29;20203;-57
2023/12/21 12:14:00;;;;;;;2.23;0.67;;;9.70;99.90;;;;;;4933764;29;20207;-57
2023/12/21 12:16:26;;;;;;;0.93;0.50;;;9.70;99.90;;;;;;4934004;29;20195;-56
2023/12/21 12:18:54;;;;;;;0.40;0.40;;;9.70;99.90;;;;;;4933293;29;20175;-57
2023/12/21 12:21:20;;;;;;;0.10;0.10;;;9.70;99.90;;;;;;4933748;29;20265;-54
2023/12/21 12:23:49;;;;;;;2.50;0.40;;;9.70;99.90;;;;;;4933727;29;20656;-54
2023/12/21 12:26:16;;;;;;;0.57;0.30;;;9.70;99.90;;;;;;4933468;29;20612;-57
2023/12/21 12:28:44;;;;;;;0.50;0.50;;;9.70;99.90;;;;;;4932661;29;20184;-55
2023/12/21 12:31:11;;;;;;;0.70;0.50;;;9.70;99.90;;;;;;4933335;29;20294;-56
2023/12/21 12:33:37;;;;;;;1.73;0.53;;;9.70;99.90;;;;;;4932982;29;20206;-56
2023/12/21 12:36:07;;;;;;;1.90;0.50;;;9.70;99.90;;;;;;4933291;29;20179;-52
2023/12/21 12:38:33;;;;;;;3.70;0.70;;;9.70;99.90;;;;;;4932790;29;20480;-54
2023/12/21 12:41:00;;;;;;;3.90;0.80;;;9.70;99.90;;;;;;4932179;29;20282;-58
2023/12/21 12:43:30;;;;;;;1.37;0.90;;;9.70;99.90;;;;;;4933062;29;20215;-57
2023/12/21 12:45:58;;;;;;;1.70;0.90;;;9.70;99.90;;;;;;4925986;29;20564;-55
2023/12/21 12:48:24;;;;;;;1.30;0.90;;;9.80;99.90;;;;;;4932837;29;20182;-52
2023/12/21 12:50:50;;;;;;;1.63;0.80;;;9.80;99.90;;;;;;4932434;29;20711;-55
2023/12/21 12:53:16;;;;;;;0.93;0.73;;;9.80;99.90;;;;;;4933249;29;20537;-52